sensor_id;sensor_type;location;lat;lon;timestamp;pressure;altitude;pressure_sealevel;temperature
64916;BMP280;51427;-27.442;153.014;2023-03-02T00:01:56;101001.22;;;25.26
64916;BMP280;51427;-27.442;153.014;2023-03-02T00:04:41;100999.16;;;25.29
64916;BMP280;51427;-27.442;153.014;2023-03-02T00:07:15;101001.66;;;25.21
64916;BMP280;51427;-27.442;153.014;2023-03-02T00:09:43;101011.25;;;25.19
64916;BMP280;51427;-27.442;153.014;2023-03-02T00:12:11;101004.13;;;25.05
64916;BMP280;51427;-27.442;153.014;2023-03-02T00:14:39;101002.88;;;25.09
64916;BMP280;51427;-27.442;153.014;2023-03-02T00:17:06;100988.84;;;25.21
64916;BMP280;51427;-27.442;153.014;2023-03-02T00:19:36;100991.00;;;25.34
64916;BMP280;51427;-27.442;153.014;2023-03-02T00:22:05;100994.69;;;25.31
64916;BMP280;51427;-27.442;153.014;2023-03-02T00:24:32;100987.94;;;25.30
64916;BMP280;51427;-27.442;153.014;2023-03-02T00:27:00;100995.13;;;25.27
64916;BMP280;51427;-27.442;153.014;2023-03-02T00:29:27;100997.63;;;25.44
64916;BMP280;51427;-27.442;153.014;2023-03-02T00:31:55;101000.91;;;25.54
64916;BMP280;51427;-27.442;153.014;2023-03-02T00:34:23;100999.28;;;25.53
64916;BMP280;51427;-27.442;153.014;2023-03-02T00:36:50;100990.09;;;25.43
64916;BMP280;51427;-27.442;153.014;2023-03-02T00:39:18;100984.53;;;25.47
64916;BMP280;51427;-27.442;153.014;2023-03-02T00:41:46;100986.25;;;25.64
64916;BMP280;51427;-27.442;153.014;2023-03-02T00:44:14;100985.94;;;25.67
64916;BMP280;51427;-27.442;153.014;2023-03-02T00:46:45;100978.13;;;25.76
64916;BMP280;51427;-27.442;153.014;2023-03-02T00:49:13;100988.19;;;25.70
64916;BMP280;51427;-27.442;153.014;2023-03-02T00:51:40;100984.69;;;25.79
64916;BMP280;51427;-27.442;153.014;2023-03-02T00:54:08;100975.84;;;25.73
64916;BMP280;51427;-27.442;153.014;2023-03-02T00:56:36;100986.31;;;25.88
64916;BMP280;51427;-27.442;153.014;2023-03-02T00:59:05;100986.16;;;25.89
64916;BMP280;51427;-27.442;153.014;2023-03-02T01:01:37;100983.59;;;25.89
64916;BMP280;51427;-27.442;153.014;2023-03-02T01:04:05;100979.47;;;25.96
64916;BMP280;51427;-27.442;153.014;2023-03-02T01:06:32;100977.88;;;26.03
64916;BMP280;51427;-27.442;153.014;2023-03-02T01:09:00;100986.22;;;26.13
64916;BMP280;51427;-27.442;153.014;2023-03-02T01:11:27;100985.91;;;26.16
64916;BMP280;51427;-27.442;153.014;2023-03-02T01:13:55;100997.41;;;25.96
64916;BMP280;51427;-27.442;153.014;2023-03-02T01:16:23;100988.72;;;25.89
64916;BMP280;51427;-27.442;153.014;2023-03-02T01:18:50;100995.25;;;25.76
64916;BMP280;51427;-27.442;153.014;2023-03-02T01:21:18;100998.28;;;25.71
64916;BMP280;51427;-27.442;153.014;2023-03-02T01:23:45;100996.66;;;25.70
64916;BMP280;51427;-27.442;153.014;2023-03-02T01:26:13;100995.44;;;25.82
64916;BMP280;51427;-27.442;153.014;2023-03-02T01:28:51;100988.72;;;25.89
64916;BMP280;51427;-27.442;153.014;2023-03-02T01:31:22;100999.16;;;25.96
64916;BMP280;51427;-27.442;153.014;2023-03-02T01:33:50;100998.22;;;25.97
64916;BMP280;51427;-27.442;153.014;2023-03-02T01:36:22;100996.31;;;26.06
64916;BMP280;51427;-27.442;153.014;2023-03-02T01:38:50;100988.63;;;26.14
64916;BMP280;51427;-27.442;153.014;2023-03-02T01:41:17;100988.00;;;26.20
64916;BMP280;51427;-27.442;153.014;2023-03-02T01:43:45;100988.03;;;26.28
64916;BMP280;51427;-27.442;153.014;2023-03-02T01:46:16;100974.59;;;26.42
64916;BMP280;51427;-27.442;153.014;2023-03-02T01:49:03;100971.22;;;26.49
64916;BMP280;51427;-27.442;153.014;2023-03-02T01:51:36;100969.13;;;26.61
64916;BMP280;51427;-27.442;153.014;2023-03-02T01:54:09;100960.47;;;26.78
64916;BMP280;51427;-27.442;153.014;2023-03-02T01:56:43;100952.13;;;26.44
64916;BMP280;51427;-27.442;153.014;2023-03-02T01:59:16;100960.78;;;26.98
64916;BMP280;51427;-27.442;153.014;2023-03-02T02:01:47;100947.75;;;27.16
64916;BMP280;51427;-27.442;153.014;2023-03-02T02:04:16;100942.06;;;27.36
64916;BMP280;51427;-27.442;153.014;2023-03-02T02:06:50;100934.50;;;26.65
64916;BMP280;51427;-27.442;153.014;2023-03-02T02:09:22;100934.34;;;27.44
64916;BMP280;51427;-27.442;153.014;2023-03-02T02:11:51;100932.88;;;27.41
64916;BMP280;51427;-27.442;153.014;2023-03-02T02:14:19;100921.94;;;26.86
64916;BMP280;51427;-27.442;153.014;2023-03-02T02:16:46;100918.97;;;27.20
64916;BMP280;51427;-27.442;153.014;2023-03-02T02:19:25;100923.53;;;28.17
64916;BMP280;51427;-27.442;153.014;2023-03-02T02:21:57;100909.97;;;28.59
64916;BMP280;51427;-27.442;153.014;2023-03-02T02:24:31;100915.19;;;27.08
64916;BMP280;51427;-27.442;153.014;2023-03-02T02:26:59;100920.47;;;27.15
64916;BMP280;51427;-27.442;153.014;2023-03-02T02:29:32;100928.28;;;27.29
64916;BMP280;51427;-27.442;153.014;2023-03-02T02:34:39;100920.81;;;27.04
64916;BMP280;51427;-27.442;153.014;2023-03-02T02:37:12;100927.97;;;27.24
64916;BMP280;51427;-27.442;153.014;2023-03-02T02:39:43;100927.06;;;27.17
64916;BMP280;51427;-27.442;153.014;2023-03-02T02:42:39;100930.59;;;27.08
64916;BMP280;51427;-27.442;153.014;2023-03-02T02:45:21;100930.50;;;27.32
64916;BMP280;51427;-27.442;153.014;2023-03-02T02:47:49;100918.97;;;27.28
64916;BMP280;51427;-27.442;153.014;2023-03-02T02:50:25;100905.59;;;27.48
64916;BMP280;51427;-27.442;153.014;2023-03-02T02:53:13;100894.66;;;27.99
64916;BMP280;51427;-27.442;153.014;2023-03-02T02:55:42;100891.09;;;28.08
64916;BMP280;51427;-27.442;153.014;2023-03-02T03:01:02;100894.94;;;27.59
64916;BMP280;51427;-27.442;153.014;2023-03-02T03:03:36;100889.28;;;28.53
64916;BMP280;51427;-27.442;153.014;2023-03-02T03:06:12;100885.06;;;28.37
64916;BMP280;51427;-27.442;153.014;2023-03-02T03:11:16;100860.47;;;28.86
64916;BMP280;51427;-27.442;153.014;2023-03-02T03:16:26;100881.88;;;27.91
64916;BMP280;51427;-27.442;153.014;2023-03-02T03:18:56;100863.78;;;28.21
64916;BMP280;51427;-27.442;153.014;2023-03-02T03:21:26;100862.78;;;28.67
64916;BMP280;51427;-27.442;153.014;2023-03-02T03:23:53;100853.94;;;28.47
64916;BMP280;51427;-27.442;153.014;2023-03-02T03:26:21;100847.50;;;28.65
64916;BMP280;51427;-27.442;153.014;2023-03-02T03:28:49;100837.19;;;28.94
64916;BMP280;51427;-27.442;153.014;2023-03-02T03:31:16;100835.81;;;28.55
64916;BMP280;51427;-27.442;153.014;2023-03-02T03:33:44;100844.25;;;28.49
64916;BMP280;51427;-27.442;153.014;2023-03-02T03:36:11;100844.75;;;28.44
64916;BMP280;51427;-27.442;153.014;2023-03-02T03:38:39;100838.56;;;28.53
64916;BMP280;51427;-27.442;153.014;2023-03-02T03:41:07;100835.69;;;28.71
64916;BMP280;51427;-27.442;153.014;2023-03-02T03:43:35;100837.06;;;28.59
64916;BMP280;51427;-27.442;153.014;2023-03-02T03:46:02;100840.75;;;28.05
64916;BMP280;51427;-27.442;153.014;2023-03-02T03:48:30;100837.78;;;28.53
64916;BMP280;51427;-27.442;153.014;2023-03-02T03:50:58;100819.50;;;28.48
64916;BMP280;51427;-27.442;153.014;2023-03-02T03:53:27;100813.63;;;28.54
64916;BMP280;51427;-27.442;153.014;2023-03-02T03:55:54;100823.19;;;28.31
64916;BMP280;51427;-27.442;153.014;2023-03-02T03:58:25;100826.00;;;27.99
64916;BMP280;51427;-27.442;153.014;2023-03-02T04:00:53;100828.88;;;28.04
64916;BMP280;51427;-27.442;153.014;2023-03-02T04:03:21;100826.66;;;28.01
64916;BMP280;51427;-27.442;153.014;2023-03-02T04:05:49;100832.59;;;27.80
64916;BMP280;51427;-27.442;153.014;2023-03-02T04:08:17;100820.19;;;27.83
64916;BMP280;51427;-27.442;153.014;2023-03-02T04:10:45;100830.09;;;27.72
64916;BMP280;51427;-27.442;153.014;2023-03-02T04:13:13;100825.41;;;27.75
64916;BMP280;51427;-27.442;153.014;2023-03-02T04:15:41;100815.78;;;27.69
64916;BMP280;51427;-27.442;153.014;2023-03-02T04:18:09;100817.31;;;27.56
64916;BMP280;51427;-27.442;153.014;2023-03-02T04:20:37;100815.34;;;27.66
64916;BMP280;51427;-27.442;153.014;2023-03-02T04:23:05;100808.75;;;27.63
64916;BMP280;51427;-27.442;153.014;2023-03-02T04:25:33;100804.63;;;27.54
64916;BMP280;51427;-27.442;153.014;2023-03-02T04:28:00;100810.31;;;27.50
64916;BMP280;51427;-27.442;153.014;2023-03-02T04:30:28;100811.28;;;27.41
64916;BMP280;51427;-27.442;153.014;2023-03-02T04:32:58;100810.03;;;27.37
64916;BMP280;51427;-27.442;153.014;2023-03-02T04:35:26;100818.72;;;27.36
64916;BMP280;51427;-27.442;153.014;2023-03-02T04:37:54;100810.16;;;27.13
64916;BMP280;51427;-27.442;153.014;2023-03-02T04:40:21;100809.88;;;27.08
64916;BMP280;51427;-27.442;153.014;2023-03-02T04:42:49;100808.13;;;27.01
64916;BMP280;51427;-27.442;153.014;2023-03-02T04:45:17;100807.91;;;27.10
64916;BMP280;51427;-27.442;153.014;2023-03-02T04:47:45;100801.94;;;27.18
64916;BMP280;51427;-27.442;153.014;2023-03-02T04:50:13;100805.47;;;27.17
64916;BMP280;51427;-27.442;153.014;2023-03-02T04:52:41;100812.13;;;27.03
64916;BMP280;51427;-27.442;153.014;2023-03-02T04:55:14;100818.59;;;26.91
64916;BMP280;51427;-27.442;153.014;2023-03-02T04:57:44;100820.91;;;26.71
64916;BMP280;51427;-27.442;153.014;2023-03-02T05:00:12;100814.06;;;26.47
64916;BMP280;51427;-27.442;153.014;2023-03-02T05:02:40;100809.38;;;26.51
64916;BMP280;51427;-27.442;153.014;2023-03-02T05:05:17;100794.41;;;26.70
64916;BMP280;51427;-27.442;153.014;2023-03-02T05:07:45;100812.53;;;26.69
64916;BMP280;51427;-27.442;153.014;2023-03-02T05:10:14;100809.53;;;26.57
64916;BMP280;51427;-27.442;153.014;2023-03-02T05:12:43;100805.16;;;26.74
64916;BMP280;51427;-27.442;153.014;2023-03-02T05:15:34;100808.41;;;26.60
64916;BMP280;51427;-27.442;153.014;2023-03-02T05:18:04;100809.72;;;26.24
64916;BMP280;51427;-27.442;153.014;2023-03-02T05:20:32;100814.38;;;25.81
64916;BMP280;51427;-27.442;153.014;2023-03-02T05:23:05;100814.78;;;25.53
64916;BMP280;51427;-27.442;153.014;2023-03-02T05:25:35;100807.41;;;25.42
64916;BMP280;51427;-27.442;153.014;2023-03-02T05:28:04;100798.41;;;25.38
64916;BMP280;51427;-27.442;153.014;2023-03-02T05:30:32;100806.38;;;25.27
64916;BMP280;51427;-27.442;153.014;2023-03-02T05:33:03;100814.03;;;25.11
64916;BMP280;51427;-27.442;153.014;2023-03-02T05:35:31;100807.03;;;24.96
64916;BMP280;51427;-27.442;153.014;2023-03-02T05:37:58;100808.25;;;24.76
64916;BMP280;51427;-27.442;153.014;2023-03-02T05:40:27;100803.09;;;25.02
64916;BMP280;51427;-27.442;153.014;2023-03-02T05:42:54;100802.31;;;24.76
64916;BMP280;51427;-27.442;153.014;2023-03-02T05:45:25;100805.72;;;24.59
64916;BMP280;51427;-27.442;153.014;2023-03-02T05:47:53;100796.22;;;24.69
64916;BMP280;51427;-27.442;153.014;2023-03-02T05:50:23;100794.16;;;25.05
64916;BMP280;51427;-27.442;153.014;2023-03-02T05:52:51;100793.19;;;25.06
64916;BMP280;51427;-27.442;153.014;2023-03-02T05:55:19;100813.03;;;25.05
64916;BMP280;51427;-27.442;153.014;2023-03-02T05:57:47;100800.66;;;25.49
64916;BMP280;51427;-27.442;153.014;2023-03-02T06:00:16;100809.63;;;25.29
64916;BMP280;51427;-27.442;153.014;2023-03-02T06:02:45;100808.13;;;25.19
64916;BMP280;51427;-27.442;153.014;2023-03-02T06:05:15;100805.47;;;25.52
64916;BMP280;51427;-27.442;153.014;2023-03-02T06:07:43;100809.06;;;25.67
64916;BMP280;51427;-27.442;153.014;2023-03-02T06:10:12;100800.25;;;25.69
64916;BMP280;51427;-27.442;153.014;2023-03-02T06:12:40;100811.22;;;25.38
64916;BMP280;51427;-27.442;153.014;2023-03-02T06:15:08;100820.97;;;25.27
64916;BMP280;51427;-27.442;153.014;2023-03-02T06:17:36;100821.75;;;25.27
64916;BMP280;51427;-27.442;153.014;2023-03-02T06:20:04;100810.59;;;25.44
64916;BMP280;51427;-27.442;153.014;2023-03-02T06:22:38;100812.69;;;25.49
64916;BMP280;51427;-27.442;153.014;2023-03-02T06:25:12;100821.53;;;25.62
64916;BMP280;51427;-27.442;153.014;2023-03-02T06:27:41;100823.81;;;25.65
64916;BMP280;51427;-27.442;153.014;2023-03-02T06:30:14;100814.38;;;25.81
64916;BMP280;51427;-27.442;153.014;2023-03-02T06:32:42;100814.69;;;25.94
64916;BMP280;51427;-27.442;153.014;2023-03-02T06:35:10;100821.75;;;26.00
64916;BMP280;51427;-27.442;153.014;2023-03-02T06:37:38;100830.91;;;26.26
64916;BMP280;51427;-27.442;153.014;2023-03-02T06:40:07;100844.38;;;26.28
64916;BMP280;51427;-27.442;153.014;2023-03-02T06:42:37;100836.97;;;26.17
64916;BMP280;51427;-27.442;153.014;2023-03-02T06:45:05;100831.22;;;26.15
64916;BMP280;51427;-27.442;153.014;2023-03-02T06:47:33;100818.69;;;26.12
64916;BMP280;51427;-27.442;153.014;2023-03-02T06:50:01;100812.97;;;26.26
64916;BMP280;51427;-27.442;153.014;2023-03-02T06:52:29;100815.00;;;26.23
64916;BMP280;51427;-27.442;153.014;2023-03-02T06:54:56;100815.81;;;26.15
64916;BMP280;51427;-27.442;153.014;2023-03-02T06:57:24;100820.31;;;26.29
64916;BMP280;51427;-27.442;153.014;2023-03-02T07:00:04;100833.44;;;26.18
64916;BMP280;51427;-27.442;153.014;2023-03-02T07:02:46;100841.47;;;26.07
64916;BMP280;51427;-27.442;153.014;2023-03-02T07:05:15;100839.53;;;26.17
64916;BMP280;51427;-27.442;153.014;2023-03-02T07:07:43;100834.09;;;26.20
64916;BMP280;51427;-27.442;153.014;2023-03-02T07:10:12;100828.47;;;26.17
64916;BMP280;51427;-27.442;153.014;2023-03-02T07:12:40;100828.31;;;26.18
64916;BMP280;51427;-27.442;153.014;2023-03-02T07:15:11;100832.81;;;26.08
64916;BMP280;51427;-27.442;153.014;2023-03-02T07:17:41;100830.22;;;26.00
64916;BMP280;51427;-27.442;153.014;2023-03-02T07:20:11;100829.91;;;26.03
64916;BMP280;51427;-27.442;153.014;2023-03-02T07:22:39;100835.53;;;25.99
64916;BMP280;51427;-27.442;153.014;2023-03-02T07:25:08;100824.00;;;25.95
64916;BMP280;51427;-27.442;153.014;2023-03-02T07:27:37;100825.78;;;25.95
64916;BMP280;51427;-27.442;153.014;2023-03-02T07:30:06;100834.41;;;25.94
64916;BMP280;51427;-27.442;153.014;2023-03-02T07:32:34;100824.47;;;25.91
64916;BMP280;51427;-27.442;153.014;2023-03-02T07:35:01;100811.66;;;25.91
64916;BMP280;51427;-27.442;153.014;2023-03-02T07:37:29;100812.94;;;25.87
64916;BMP280;51427;-27.442;153.014;2023-03-02T07:39:57;100815.00;;;25.83
64916;BMP280;51427;-27.442;153.014;2023-03-02T07:42:24;100814.22;;;25.83
64916;BMP280;51427;-27.442;153.014;2023-03-02T07:44:52;100829.44;;;25.84
64916;BMP280;51427;-27.442;153.014;2023-03-02T07:47:20;100838.22;;;25.82
64916;BMP280;51427;-27.442;153.014;2023-03-02T07:49:48;100837.91;;;25.85
64916;BMP280;51427;-27.442;153.014;2023-03-02T07:52:16;100837.59;;;25.80
64916;BMP280;51427;-27.442;153.014;2023-03-02T07:54:43;100820.59;;;25.79
64916;BMP280;51427;-27.442;153.014;2023-03-02T07:57:11;100822.06;;;25.73
64916;BMP280;51427;-27.442;153.014;2023-03-02T07:59:42;100819.81;;;25.70
64916;BMP280;51427;-27.442;153.014;2023-03-02T08:02:17;100824.75;;;25.64
64916;BMP280;51427;-27.442;153.014;2023-03-02T08:04:46;100822.22;;;25.64
64916;BMP280;51427;-27.442;153.014;2023-03-02T08:07:13;100835.78;;;25.56
64916;BMP280;51427;-27.442;153.014;2023-03-02T08:09:41;100833.38;;;25.55
64916;BMP280;51427;-27.442;153.014;2023-03-02T08:12:12;100836.91;;;25.54
64916;BMP280;51427;-27.442;153.014;2023-03-02T08:14:39;100839.47;;;25.54
64916;BMP280;51427;-27.442;153.014;2023-03-02T08:17:07;100847.31;;;25.60
64916;BMP280;51427;-27.442;153.014;2023-03-02T08:19:35;100855.78;;;25.53
64916;BMP280;51427;-27.442;153.014;2023-03-02T08:22:03;100839.47;;;25.54
64916;BMP280;51427;-27.442;153.014;2023-03-02T08:24:30;100865.72;;;25.56
64916;BMP280;51427;-27.442;153.014;2023-03-02T08:27:02;100878.59;;;25.72
64916;BMP280;51427;-27.442;153.014;2023-03-02T08:29:30;100880.22;;;25.81
64916;BMP280;51427;-27.442;153.014;2023-03-02T08:31:58;100890.63;;;25.71
64916;BMP280;51427;-27.442;153.014;2023-03-02T08:34:26;100892.44;;;25.53
64916;BMP280;51427;-27.442;153.014;2023-03-02T08:36:54;100908.66;;;25.54
64916;BMP280;51427;-27.442;153.014;2023-03-02T08:39:22;100905.13;;;25.55
64916;BMP280;51427;-27.442;153.014;2023-03-02T08:41:53;100908.97;;;25.51
64916;BMP280;51427;-27.442;153.014;2023-03-02T08:44:21;100913.41;;;25.49
64916;BMP280;51427;-27.442;153.014;2023-03-02T08:46:50;100907.00;;;25.45
64916;BMP280;51427;-27.442;153.014;2023-03-02T08:49:18;100918.50;;;25.41
64916;BMP280;51427;-27.442;153.014;2023-03-02T08:51:49;100916.63;;;25.43
64916;BMP280;51427;-27.442;153.014;2023-03-02T08:54:22;100930.69;;;25.39
64916;BMP280;51427;-27.442;153.014;2023-03-02T08:56:50;100925.84;;;25.36
64916;BMP280;51427;-27.442;153.014;2023-03-02T08:59:17;100922.50;;;25.36
64916;BMP280;51427;-27.442;153.014;2023-03-02T09:01:46;100929.53;;;25.34
64916;BMP280;51427;-27.442;153.014;2023-03-02T09:04:14;100935.16;;;25.37
64916;BMP280;51427;-27.442;153.014;2023-03-02T09:06:43;100934.31;;;25.29
64916;BMP280;51427;-27.442;153.014;2023-03-02T09:09:13;100933.22;;;25.31
64916;BMP280;51427;-27.442;153.014;2023-03-02T09:11:40;100934.31;;;25.29
64916;BMP280;51427;-27.442;153.014;2023-03-02T09:14:09;100943.94;;;25.35
64916;BMP280;51427;-27.442;153.014;2023-03-02T09:16:37;100946.97;;;25.30
64916;BMP280;51427;-27.442;153.014;2023-03-02T09:19:05;100947.56;;;25.24
64916;BMP280;51427;-27.442;153.014;2023-03-02T09:21:33;100949.50;;;25.22
64916;BMP280;51427;-27.442;153.014;2023-03-02T09:24:00;100957.31;;;25.21
64916;BMP280;51427;-27.442;153.014;2023-03-02T09:26:28;100947.06;;;25.21
64916;BMP280;51427;-27.442;153.014;2023-03-02T09:28:56;100952.69;;;25.24
64916;BMP280;51427;-27.442;153.014;2023-03-02T09:31:24;100951.69;;;25.17
64916;BMP280;51427;-27.442;153.014;2023-03-02T09:33:51;100964.66;;;25.16
64916;BMP280;51427;-27.442;153.014;2023-03-02T09:36:22;100958.75;;;25.15
64916;BMP280;51427;-27.442;153.014;2023-03-02T09:38:50;100964.16;;;25.12
64916;BMP280;51427;-27.442;153.014;2023-03-02T09:47:31;100957.22;;;25.05
64916;BMP280;51427;-27.442;153.014;2023-03-02T09:50:30;100972.31;;;25.08
64916;BMP280;51427;-27.442;153.014;2023-03-02T09:53:33;100992.19;;;25.14
64916;BMP280;51427;-27.442;153.014;2023-03-02T09:56:07;100989.72;;;25.05
64916;BMP280;51427;-27.442;153.014;2023-03-02T09:58:40;100980.44;;;25.04
64916;BMP280;51427;-27.442;153.014;2023-03-02T10:01:14;100980.13;;;25.06
64916;BMP280;51427;-27.442;153.014;2023-03-02T10:04:12;100962.44;;;24.96
64916;BMP280;51427;-27.442;153.014;2023-03-02T10:06:41;100953.41;;;24.92
64916;BMP280;51427;-27.442;153.014;2023-03-02T10:09:09;100955.19;;;24.91
64916;BMP280;51427;-27.442;153.014;2023-03-02T10:11:51;100963.00;;;24.90
64916;BMP280;51427;-27.442;153.014;2023-03-02T10:14:35;100961.63;;;24.95
64916;BMP280;51427;-27.442;153.014;2023-03-02T10:20:16;100958.50;;;24.84
64916;BMP280;51427;-27.442;153.014;2023-03-02T10:22:51;100955.34;;;24.90
64916;BMP280;51427;-27.442;153.014;2023-03-02T10:25:41;100957.25;;;24.88
64916;BMP280;51427;-27.442;153.014;2023-03-02T10:28:23;100962.31;;;24.80
64916;BMP280;51427;-27.442;153.014;2023-03-02T10:31:04;100954.63;;;24.80
64916;BMP280;51427;-27.442;153.014;2023-03-02T10:33:36;100974.97;;;24.81
64916;BMP280;51427;-27.442;153.014;2023-03-02T10:36:28;100971.59;;;24.81
64916;BMP280;51427;-27.442;153.014;2023-03-02T10:38:57;100972.75;;;24.86
64916;BMP280;51427;-27.442;153.014;2023-03-02T10:41:34;100977.75;;;25.13
64916;BMP280;51427;-27.442;153.014;2023-03-02T10:44:28;100981.47;;;24.76
64916;BMP280;51427;-27.442;153.014;2023-03-02T10:46:55;100982.34;;;25.02
64916;BMP280;51427;-27.442;153.014;2023-03-02T10:49:28;100984.84;;;24.76
64916;BMP280;51427;-27.442;153.014;2023-03-02T10:52:01;100979.50;;;24.70
64916;BMP280;51427;-27.442;153.014;2023-03-02T10:54:31;100986.59;;;24.76
64916;BMP280;51427;-27.442;153.014;2023-03-02T10:57:13;101001.59;;;24.71
64916;BMP280;51427;-27.442;153.014;2023-03-02T10:59:51;100993.91;;;24.71
64916;BMP280;51427;-27.442;153.014;2023-03-02T11:02:27;100995.00;;;24.86
64916;BMP280;51427;-27.442;153.014;2023-03-02T11:08:09;101008.44;;;24.88
64916;BMP280;51427;-27.442;153.014;2023-03-02T11:10:40;101019.94;;;24.84
64916;BMP280;51427;-27.442;153.014;2023-03-02T11:13:35;101017.50;;;24.82
64916;BMP280;51427;-27.442;153.014;2023-03-02T11:16:26;101014.50;;;24.87
64916;BMP280;51427;-27.442;153.014;2023-03-02T11:24:43;101027.41;;;24.77
64916;BMP280;51427;-27.442;153.014;2023-03-02T11:27:21;101020.84;;;24.75
64916;BMP280;51427;-27.442;153.014;2023-03-02T11:30:11;101026.53;;;24.69
64916;BMP280;51427;-27.442;153.014;2023-03-02T11:32:50;101029.38;;;24.83
64916;BMP280;51427;-27.442;153.014;2023-03-02T11:35:37;101024.53;;;24.80
64916;BMP280;51427;-27.442;153.014;2023-03-02T11:38:15;101028.13;;;24.70
64916;BMP280;51427;-27.442;153.014;2023-03-02T11:40:59;101030.53;;;24.71
64916;BMP280;51427;-27.442;153.014;2023-03-02T11:43:29;101041.66;;;24.80
64916;BMP280;51427;-27.442;153.014;2023-03-02T11:46:02;101032.94;;;24.73
64916;BMP280;51427;-27.442;153.014;2023-03-02T11:48:41;101013.81;;;24.59
64916;BMP280;51427;-27.442;153.014;2023-03-02T11:51:17;100996.19;;;24.57
64916;BMP280;51427;-27.442;153.014;2023-03-02T11:53:47;101005.16;;;24.60
64916;BMP280;51427;-27.442;153.014;2023-03-02T11:56:15;101006.66;;;24.63
64916;BMP280;51427;-27.442;153.014;2023-03-02T11:58:46;101007.44;;;24.63
64916;BMP280;51427;-27.442;153.014;2023-03-02T12:01:23;101008.41;;;24.62
64916;BMP280;51427;-27.442;153.014;2023-03-02T12:03:52;101013.66;;;24.61
64916;BMP280;51427;-27.442;153.014;2023-03-02T12:06:26;101017.53;;;24.65
64916;BMP280;51427;-27.442;153.014;2023-03-02T12:09:33;101007.16;;;24.66
64916;BMP280;51427;-27.442;153.014;2023-03-02T12:14:46;100994.72;;;24.54
64916;BMP280;51427;-27.442;153.014;2023-03-02T12:22:36;100992.00;;;24.73
64916;BMP280;51427;-27.442;153.014;2023-03-02T12:25:24;100977.22;;;24.67
64916;BMP280;51427;-27.442;153.014;2023-03-02T12:27:53;100987.13;;;24.62
64916;BMP280;51427;-27.442;153.014;2023-03-02T12:30:25;101000.84;;;24.78
64916;BMP280;51427;-27.442;153.014;2023-03-02T12:33:15;100998.38;;;24.69
64916;BMP280;51427;-27.442;153.014;2023-03-02T12:35:46;100995.81;;;24.69
64916;BMP280;51427;-27.442;153.014;2023-03-02T12:38:28;100998.31;;;24.61
64916;BMP280;51427;-27.442;153.014;2023-03-02T12:46:46;100996.13;;;24.66
64916;BMP280;51427;-27.442;153.014;2023-03-02T12:52:01;101006.34;;;24.66
64916;BMP280;51427;-27.442;153.014;2023-03-02T12:54:33;101016.38;;;24.59
64916;BMP280;51427;-27.442;153.014;2023-03-02T12:57:19;101008.84;;;24.58
64916;BMP280;51427;-27.442;153.014;2023-03-02T12:59:54;100995.31;;;24.48
64916;BMP280;51427;-27.442;153.014;2023-03-02T13:02:28;100987.63;;;24.48
64916;BMP280;51427;-27.442;153.014;2023-03-02T13:05:00;100988.81;;;24.54
64916;BMP280;51427;-27.442;153.014;2023-03-02T13:13:14;101008.41;;;24.18
64916;BMP280;51427;-27.442;153.014;2023-03-02T13:15:53;101006.59;;;24.28
64916;BMP280;51427;-27.442;153.014;2023-03-02T13:18:23;101004.81;;;24.38
64916;BMP280;51427;-27.442;153.014;2023-03-02T13:20:51;100997.78;;;24.40
64916;BMP280;51427;-27.442;153.014;2023-03-02T13:23:20;100993.97;;;24.27
64916;BMP280;51427;-27.442;153.014;2023-03-02T13:26:05;101005.03;;;24.45
64916;BMP280;51427;-27.442;153.014;2023-03-02T13:28:38;100990.09;;;24.58
64916;BMP280;51427;-27.442;153.014;2023-03-02T13:33:53;100974.41;;;24.35
64916;BMP280;51427;-27.442;153.014;2023-03-02T13:36:27;100986.41;;;24.35
64916;BMP280;51427;-27.442;153.014;2023-03-02T13:38:57;100994.28;;;24.41
64916;BMP280;51427;-27.442;153.014;2023-03-02T13:41:32;100993.50;;;24.41
64916;BMP280;51427;-27.442;153.014;2023-03-02T13:44:18;100982.00;;;24.45
64916;BMP280;51427;-27.442;153.014;2023-03-02T13:46:47;100976.69;;;24.38
64916;BMP280;51427;-27.442;153.014;2023-03-02T13:49:28;100992.25;;;24.45
64916;BMP280;51427;-27.442;153.014;2023-03-02T13:52:19;100985.75;;;24.50
64916;BMP280;51427;-27.442;153.014;2023-03-02T13:54:48;100974.56;;;24.34
64916;BMP280;51427;-27.442;153.014;2023-03-02T13:57:28;100976.09;;;24.44
64916;BMP280;51427;-27.442;153.014;2023-03-02T13:59:58;100968.56;;;24.43
64916;BMP280;51427;-27.442;153.014;2023-03-02T14:02:28;100963.75;;;24.40
64916;BMP280;51427;-27.442;153.014;2023-03-02T14:04:57;100983.03;;;24.34
64916;BMP280;51427;-27.442;153.014;2023-03-02T14:07:24;100981.78;;;24.38
64916;BMP280;51427;-27.442;153.014;2023-03-02T14:09:52;100975.34;;;24.34
64916;BMP280;51427;-27.442;153.014;2023-03-02T14:12:26;100988.00;;;24.36
64916;BMP280;51427;-27.442;153.014;2023-03-02T14:14:57;100989.53;;;24.46
64916;BMP280;51427;-27.442;153.014;2023-03-02T14:17:26;100976.97;;;24.35
64916;BMP280;51427;-27.442;153.014;2023-03-02T14:19:54;100971.56;;;24.38
64916;BMP280;51427;-27.442;153.014;2023-03-02T14:22:24;100966.72;;;24.35
64916;BMP280;51427;-27.442;153.014;2023-03-02T14:24:52;100964.16;;;24.35
64916;BMP280;51427;-27.442;153.014;2023-03-02T14:27:28;100969.16;;;24.37
64916;BMP280;51427;-27.442;153.014;2023-03-02T14:29:55;100969.69;;;24.31
64916;BMP280;51427;-27.442;153.014;2023-03-02T14:32:22;100985.03;;;24.31
64916;BMP280;51427;-27.442;153.014;2023-03-02T14:34:50;100984.94;;;24.32
64916;BMP280;51427;-27.442;153.014;2023-03-02T14:37:22;100981.84;;;24.29
64916;BMP280;51427;-27.442;153.014;2023-03-02T14:39:51;100982.59;;;24.39